Terminal Aerodrome Forecast
Issued by NWS Shreveport, LA

Home | Current Version | Previous Version | Text Only | Print | Product List | Glossary On
Versions: 1 2 3 4 5 6 7 8 9 10 11 12 13 14
000
FTUS44 KSHV 052334
TAFELD
TAF
KELD 052334Z 0600/0624 13006KT P6SM FEW100 BKN250
     FM060600 14003KT P6SM FEW100 BKN250
     FM061600 14008KT P6SM SCT035 SCT100 BKN250
     FM061800 14009KT P6SM SCT040 BKN100 BKN250=

USA.gov is the U.S. government's official web portal to all federal, state and local government web resources and services.